createdAt,value
2023-02-04T08:17:02.110Z,59.93
2023-02-04T08:29:02.577Z,69.40
2023-02-04T08:41:03.040Z,71.29
2023-02-04T08:53:03.478Z,63.97
2023-02-04T09:05:03.946Z,67.08
2023-02-04T09:17:04.391Z,70.98
2023-02-04T09:29:04.842Z,89.15
2023-02-04T09:41:05.334Z,84.78
2023-02-04T09:53:05.772Z,66.20
2023-02-04T10:05:06.615Z,60.89
2023-02-04T10:17:06.617Z,59.12
2023-02-04T10:29:09.545Z,59.96
2023-02-04T10:41:07.543Z,61.69
2023-02-04T10:53:07.990Z,57.74
2023-02-04T11:05:08.439Z,56.71
2023-02-04T11:17:08.920Z,55.72
2023-02-04T11:29:09.350Z,63.73
2023-02-04T11:41:09.787Z,71.50
2023-02-04T11:53:10.262Z,62.04
2023-02-04T12:05:10.715Z,66.48
2023-02-04T12:17:11.189Z,67.29
2023-02-04T12:29:11.634Z,65.05
2023-02-04T12:41:12.063Z,55.56
2023-02-04T12:53:12.555Z,54.63
2023-02-04T13:05:12.959Z,54.49
2023-02-04T13:17:13.430Z,48.43
2023-02-04T13:29:13.874Z,48.20
2023-02-04T13:41:14.357Z,47.99
2023-02-04T13:53:14.772Z,47.53
2023-02-04T14:05:15.216Z,49.90
2023-02-04T14:17:15.690Z,50.06
2023-02-04T14:29:16.201Z,52.18
2023-02-04T14:41:16.587Z,52.11
2023-02-04T14:53:17.047Z,53.77
2023-02-04T15:05:17.519Z,51.70
2023-02-04T15:17:17.986Z,55.12
2023-02-04T15:29:18.389Z,53.63
2023-02-04T15:41:18.877Z,53.81
2023-02-04T15:53:19.321Z,53.73
2023-02-04T16:05:19.806Z,54.16
2023-02-04T16:17:20.267Z,53.64
2023-02-04T16:29:20.653Z,52.45
2023-02-04T16:41:21.127Z,52.08
2023-02-04T16:53:21.596Z,51.97
2023-02-04T17:05:22.106Z,51.26
2023-02-04T17:17:22.477Z,50.55
2023-02-04T17:29:22.936Z,49.21
2023-02-04T17:41:23.406Z,46.96
2023-02-04T17:53:23.808Z,45.16
2023-02-04T18:05:24.295Z,45.76
2023-02-04T18:17:24.745Z,45.78
2023-02-04T18:29:25.195Z,46.14
2023-02-04T18:41:25.603Z,46.80
2023-02-04T18:53:26.056Z,47.23
2023-02-04T19:05:26.543Z,48.66
2023-02-04T19:17:27.039Z,48.63
2023-02-04T19:29:27.389Z,48.52
2023-02-04T19:41:27.852Z,48.74
2023-02-04T19:53:28.341Z,53.93
2023-02-04T20:05:28.774Z,52.91
2023-02-04T20:17:29.256Z,52.17
2023-02-04T20:29:29.716Z,55.10
2023-02-04T20:41:30.138Z,53.27
2023-02-04T20:53:30.637Z,51.98
2023-02-04T21:05:31.233Z,51.78
2023-02-04T21:17:31.468Z,52.18
2023-02-04T21:29:31.937Z,53.21
2023-02-04T21:41:32.434Z,60.25
2023-02-04T21:53:32.861Z,63.95
2023-02-04T22:05:33.697Z,66.27
2023-02-04T22:17:33.770Z,73.99
2023-02-04T22:29:34.234Z,78.96
2023-02-04T22:41:34.682Z,85.18
2023-02-04T22:53:35.085Z,89.14
2023-02-04T23:05:35.844Z,89.19
2023-02-04T23:17:36.017Z,89.73
2023-02-04T23:29:36.468Z,90.96
2023-02-04T23:41:36.941Z,90.29
2023-02-04T23:53:37.371Z,89.03
